createdAt,value
2022-10-04T00:02:50.687Z,98957.41
2022-10-04T00:06:01.010Z,98962.41
2022-10-04T00:09:10.475Z,98954.06
2022-10-04T00:12:22.174Z,98958.75
2022-10-04T00:15:31.405Z,98954.44
2022-10-04T00:18:43.365Z,98951.22
2022-10-04T00:22:20.876Z,98954.09
2022-10-04T00:25:38.209Z,98954.94
2022-10-04T00:28:48.334Z,98952.25
2022-10-04T00:32:28.727Z,98950.28
2022-10-04T00:35:52.695Z,98952.38
2022-10-04T00:39:17.244Z,98945.53
2022-10-04T00:42:41.023Z,98939.59
2022-10-04T00:45:49.141Z,98940.91
2022-10-04T00:48:57.455Z,98939.75
2022-10-04T00:52:06.283Z,98930.59
2022-10-04T00:55:23.436Z,98933.50
2022-10-04T00:58:33.465Z,98925.50
2022-10-04T01:01:39.819Z,98922.72
2022-10-04T01:04:51.000Z,98932.03
2022-10-04T01:07:59.732Z,98936.88
2022-10-04T01:11:12.103Z,98929.47
2022-10-04T01:14:23.050Z,98930.88
2022-10-04T01:17:28.150Z,98927.72
2022-10-04T01:20:35.490Z,98930.63
2022-10-04T01:23:44.676Z,98927.38
2022-10-04T01:26:49.542Z,98923.09
2022-10-04T01:29:56.611Z,98927.38
2022-10-04T01:33:02.455Z,98913.47
2022-10-04T01:36:09.799Z,98910.56
2022-10-04T01:39:17.325Z,98902.78
2022-10-04T01:42:28.575Z,98900.50
2022-10-04T01:45:39.027Z,98891.91
2022-10-04T01:48:47.607Z,98879.25
2022-10-04T01:51:58.565Z,98886.47
2022-10-04T01:55:08.507Z,98880.91
2022-10-04T01:58:17.347Z,98880.31
2022-10-04T02:01:28.950Z,98881.34
2022-10-04T02:04:38.746Z,98882.75
2022-10-04T02:07:44.676Z,98879.50
2022-10-04T02:10:52.266Z,98874.66
2022-10-04T02:13:58.250Z,98882.66
2022-10-04T02:17:05.593Z,98883.22
2022-10-04T02:20:16.634Z,98876.25
2022-10-04T02:23:23.334Z,98877.66
2022-10-04T02:26:29.962Z,98875.69
2022-10-04T02:29:35.266Z,98877.91
2022-10-04T02:33:00.832Z,98866.66
2022-10-04T02:36:06.250Z,98860.97
2022-10-04T02:39:16.081Z,98869.31
2022-10-04T02:42:32.261Z,98871.97
2022-10-04T02:45:45.363Z,98865.69
2022-10-04T02:48:55.660Z,98869.63
2022-10-04T02:52:05.659Z,98865.81
2022-10-04T02:55:20.440Z,98863.44
2022-10-04T02:58:28.579Z,98858.22
2022-10-04T03:01:45.684Z,98851.84
2022-10-04T03:04:53.293Z,98853.22
2022-10-04T03:07:59.334Z,98855.69
2022-10-04T03:11:09.949Z,98852.06
2022-10-04T03:14:20.699Z,98852.19
2022-10-04T03:17:25.901Z,98847.78
2022-10-04T03:20:31.078Z,98840.59
2022-10-04T03:23:37.172Z,98839.31
2022-10-04T03:26:47.417Z,98844.31
2022-10-04T03:29:58.887Z,98840.59
2022-10-04T03:33:04.578Z,98832.47
2022-10-04T03:36:14.288Z,98841.41
2022-10-04T03:39:33.352Z,98841.41
2022-10-04T03:42:40.038Z,98842.91
2022-10-04T03:45:46.682Z,98841.19
2022-10-04T03:48:56.203Z,98836.50
2022-10-04T03:52:03.237Z,98833.59
2022-10-04T03:55:10.126Z,98834.09
2022-10-04T03:58:16.556Z,98830.25
2022-10-04T04:01:36.353Z,98833.50
2022-10-04T04:04:51.034Z,98827.13
2022-10-04T04:08:05.581Z,98830.22
2022-10-04T04:11:20.740Z,98824.19
2022-10-04T04:14:29.568Z,98830.06
2022-10-04T04:17:45.033Z,98839.47
2022-10-04T04:20:52.550Z,98834.00
2022-10-04T04:24:01.220Z,98829.50
2022-10-04T04:27:11.093Z,98823.09
2022-10-04T04:30:21.365Z,98818.06
2022-10-04T04:33:31.835Z,98817.25
2022-10-04T04:36:43.143Z,98815.78
2022-10-04T04:39:55.070Z,98821.50
2022-10-04T04:43:03.181Z,98816.94
2022-10-04T04:46:27.210Z,98811.03
2022-10-04T04:49:34.106Z,98816.72
2022-10-04T04:52:40.088Z,98837.09
2022-10-04T04:56:05.008Z,98842.53
2022-10-04T04:59:10.769Z,98848.22
2022-10-04T05:02:31.213Z,98849.03
2022-10-04T05:05:38.235Z,98856.22
2022-10-04T05:08:51.299Z,98851.00
2022-10-04T05:12:00.430Z,98857.28
2022-10-04T05:15:05.466Z,98855.94
2022-10-04T05:18:32.195Z,98864.75
2022-10-04T05:21:42.846Z,98861.72
2022-10-04T05:24:50.678Z,98861.16
2022-10-04T05:27:57.560Z,98868.81
2022-10-04T05:31:37.870Z,98870.47
2022-10-04T05:34:45.969Z,98863.63
2022-10-04T05:38:03.256Z,98869.06
2022-10-04T05:41:16.504Z,98867.44
2022-10-04T05:44:30.407Z,98859.50
2022-10-04T05:47:35.911Z,98853.59
2022-10-04T05:50:42.735Z,98849.66
2022-10-04T05:53:50.433Z,98855.31
2022-10-04T05:57:09.339Z,98856.22
2022-10-04T06:00:18.547Z,98850.97
2022-10-04T06:03:38.896Z,98859.75
2022-10-04T06:06:50.754Z,98856.03
2022-10-04T06:10:27.943Z,98857.25
2022-10-04T06:14:07.973Z,98848.94
2022-10-04T06:17:34.465Z,98836.66
2022-10-04T06:21:12.243Z,98842.50
2022-10-04T06:24:26.178Z,98845.34
2022-10-04T06:27:38.478Z,98844.94
2022-10-04T06:31:03.668Z,98845.66
2022-10-04T06:34:36.805Z,98852.16
2022-10-04T06:38:09.238Z,98853.78
2022-10-04T06:42:00.037Z,98858.38
2022-10-04T06:45:25.023Z,98854.97
2022-10-04T06:48:50.904Z,98854.06
2022-10-04T06:52:17.410Z,98849.59
2022-10-04T06:55:43.114Z,98856.47
2022-10-04T06:59:11.560Z,98841.00
2022-10-04T07:02:24.591Z,98848.81
2022-10-04T07:05:35.311Z,98847.03
2022-10-04T07:08:45.572Z,98854.56
2022-10-04T07:11:55.245Z,98847.41
2022-10-04T07:15:04.738Z,98849.91
2022-10-04T07:18:17.251Z,98851.09
2022-10-04T07:21:28.443Z,98862.19
2022-10-04T07:24:46.425Z,98862.53
2022-10-04T07:28:10.592Z,98865.28
2022-10-04T07:31:23.615Z,98864.81
2022-10-04T07:34:31.227Z,98867.06
2022-10-04T07:37:55.567Z,98887.56
2022-10-04T07:41:12.994Z,98886.22
2022-10-04T07:44:28.493Z,98899.19
2022-10-04T07:47:34.653Z,98904.50
2022-10-04T07:50:46.761Z,98911.56
2022-10-04T07:53:58.237Z,98898.19
2022-10-04T07:57:16.166Z,98901.69
2022-10-04T08:00:24.640Z,98889.38
2022-10-04T08:03:43.794Z,98890.81
2022-10-04T08:07:12.655Z,98895.19
2022-10-04T08:10:26.299Z,98889.34
2022-10-04T08:13:41.964Z,98895.28
2022-10-04T08:17:00.643Z,98886.75
2022-10-04T08:20:22.524Z,98874.94
2022-10-04T08:23:47.908Z,98862.66
2022-10-04T08:27:12.886Z,98858.13
2022-10-04T08:30:18.138Z,98865.47
2022-10-04T08:33:34.234Z,98877.06
2022-10-04T08:36:50.371Z,98866.09
2022-10-04T08:40:13.035Z,98868.88
2022-10-04T08:43:43.575Z,98864.88
2022-10-04T08:47:29.005Z,98869.53
2022-10-04T08:51:02.838Z,98877.69
2022-10-04T08:54:28.220Z,98883.31
2022-10-04T08:58:12.899Z,98888.22
2022-10-04T09:01:48.650Z,98876.19
2022-10-04T09:05:14.333Z,98878.66
2022-10-04T09:08:51.687Z,98885.38
2022-10-04T09:12:23.551Z,98883.25
2022-10-04T09:15:41.454Z,98879.19
2022-10-04T09:19:00.959Z,98879.16
2022-10-04T09:22:34.946Z,98876.06
2022-10-04T09:25:59.976Z,98868.38
2022-10-04T09:29:19.551Z,98863.91
2022-10-04T09:33:02.471Z,98850.16
2022-10-04T09:36:29.934Z,98857.19
2022-10-04T09:40:02.013Z,98849.06
2022-10-04T09:43:30.470Z,98837.72
2022-10-04T09:46:58.025Z,98846.72
2022-10-04T09:50:37.958Z,98843.81
2022-10-04T09:53:58.837Z,98837.50
2022-10-04T09:57:16.262Z,98834.13
2022-10-04T10:00:28.828Z,98841.66
2022-10-04T10:03:55.664Z,98834.38
2022-10-04T10:07:15.795Z,98830.69
2022-10-04T10:10:45.331Z,98825.56
2022-10-04T10:14:15.904Z,98836.03
2022-10-04T10:17:29.747Z,98846.19
2022-10-04T10:20:57.722Z,98845.47
2022-10-04T10:24:25.837Z,98843.41
2022-10-04T10:28:05.026Z,98846.19
2022-10-04T10:31:32.871Z,98846.69
2022-10-04T10:35:16.763Z,98834.19
2022-10-04T10:38:35.970Z,98837.09
2022-10-04T10:42:14.250Z,98829.25
2022-10-04T10:45:38.414Z,98836.50
2022-10-04T10:49:22.378Z,98826.38
2022-10-04T10:53:13.144Z,98825.31
2022-10-04T10:56:39.730Z,98820.47
2022-10-04T11:00:08.670Z,98818.66
2022-10-04T11:03:51.361Z,98823.94
2022-10-04T11:07:27.064Z,98828.94
2022-10-04T11:11:06.639Z,98821.88
2022-10-04T11:14:47.883Z,98818.19
2022-10-04T11:18:20.683Z,98810.09
2022-10-04T11:21:56.157Z,98807.06
2022-10-04T11:25:42.403Z,98798.75
2022-10-04T11:28:52.624Z,98796.25
2022-10-04T11:32:27.686Z,98801.28
2022-10-04T11:35:44.645Z,98795.44
2022-10-04T11:39:32.596Z,98795.13
2022-10-04T11:43:01.169Z,98784.78
2022-10-04T11:46:19.483Z,98780.38
2022-10-04T11:49:49.590Z,98765.03
2022-10-04T11:53:15.932Z,98765.91
2022-10-04T11:56:43.856Z,98761.06
2022-10-04T11:59:56.834Z,98760.13
2022-10-04T12:03:28.327Z,98758.53
2022-10-04T12:06:49.692Z,98754.22
2022-10-04T12:10:05.586Z,98747.88
2022-10-04T12:13:48.743Z,98744.72
2022-10-04T12:17:29.523Z,98739.75
2022-10-04T12:21:19.146Z,98738.94
2022-10-04T12:24:37.173Z,98739.34
2022-10-04T12:28:00.221Z,98739.94
2022-10-04T12:31:23.653Z,98739.72
2022-10-04T12:34:40.033Z,98731.69
2022-10-04T12:38:08.789Z,98728.88
2022-10-04T12:41:26.643Z,98728.16
2022-10-04T12:44:43.839Z,98724.84
2022-10-04T12:48:00.560Z,98722.38
2022-10-04T12:51:22.167Z,98733.59
2022-10-04T12:54:39.005Z,98722.19
2022-10-04T12:57:51.627Z,98714.69
2022-10-04T13:01:05.808Z,98718.38
2022-10-04T13:04:25.306Z,98717.56
2022-10-04T13:07:46.369Z,98711.31
2022-10-04T13:11:07.554Z,98715.47
2022-10-04T13:14:42.170Z,98711.81
2022-10-04T13:17:56.162Z,98708.47
2022-10-04T13:21:04.871Z,98716.78
2022-10-04T13:24:22.516Z,98712.91
2022-10-04T13:27:36.173Z,98716.09
2022-10-04T13:30:49.839Z,98718.66
2022-10-04T13:34:06.084Z,98715.09
2022-10-04T13:37:36.327Z,98715.56
2022-10-04T13:40:56.836Z,98717.94
2022-10-04T13:44:29.126Z,98706.31
2022-10-04T13:47:58.518Z,98712.03
2022-10-04T13:51:32.068Z,98702.97
2022-10-04T13:54:59.940Z,98708.50
2022-10-04T13:58:21.997Z,98710.03
2022-10-04T14:02:03.350Z,98704.09
2022-10-04T14:05:44.102Z,98706.84
2022-10-04T14:13:37.163Z,98691.28
2022-10-04T14:17:12.724Z,98682.50
2022-10-04T14:20:51.025Z,98681.47
2022-10-04T14:24:28.089Z,98679.19
2022-10-04T14:28:15.962Z,98682.59
2022-10-04T14:31:47.109Z,98675.09
2022-10-04T14:35:03.663Z,98670.91
2022-10-04T14:38:38.655Z,98669.03
2022-10-04T14:42:14.917Z,98667.47
2022-10-04T14:45:26.793Z,98665.16
2022-10-04T14:48:55.764Z,98669.84
2022-10-04T14:52:25.324Z,98671.88
2022-10-04T14:56:03.092Z,98674.09
2022-10-04T14:59:26.383Z,98679.00
2022-10-04T15:03:14.008Z,98675.28
2022-10-04T15:06:38.509Z,98676.97
2022-10-04T15:09:54.112Z,98667.94
2022-10-04T15:13:11.001Z,98663.44
2022-10-04T15:16:24.433Z,98658.91
2022-10-04T15:19:35.231Z,98662.25
2022-10-04T15:22:45.504Z,98657.88
2022-10-04T15:25:55.090Z,98659.91
2022-10-04T15:29:16.454Z,98663.06
2022-10-04T15:32:35.598Z,98658.84
2022-10-04T15:35:51.677Z,98661.81
2022-10-04T15:39:05.412Z,98655.06
2022-10-04T15:42:15.864Z,98641.34
2022-10-04T15:46:00.714Z,98645.66
2022-10-04T15:49:38.367Z,98656.94
2022-10-04T15:53:08.879Z,98654.16
2022-10-04T15:56:27.755Z,98660.97
2022-10-04T15:59:53.943Z,98650.84
2022-10-04T16:03:17.497Z,98649.84
2022-10-04T16:06:26.133Z,98646.78
2022-10-04T16:09:40.245Z,98647.19
2022-10-04T16:13:14.967Z,98640.69
2022-10-04T16:16:43.214Z,98636.00
2022-10-04T16:20:27.130Z,98636.72
2022-10-04T16:23:35.060Z,98634.31
2022-10-04T16:27:10.287Z,98639.13
2022-10-04T16:30:28.365Z,98635.03
2022-10-04T16:33:39.771Z,98634.25
2022-10-04T16:36:54.006Z,98638.91
2022-10-04T16:40:06.240Z,98641.94
2022-10-04T16:43:16.507Z,98641.19
2022-10-04T16:46:31.851Z,98642.38
2022-10-04T16:49:47.747Z,98649.47
2022-10-04T16:53:01.543Z,98642.00
2022-10-04T16:56:15.735Z,98654.47
2022-10-04T16:59:47.387Z,98659.50
2022-10-04T17:03:20.226Z,98670.06
2022-10-04T17:06:36.312Z,98675.66
2022-10-04T17:09:49.494Z,98673.94
2022-10-04T17:13:00.344Z,98678.69
2022-10-04T17:16:11.971Z,98681.31
2022-10-04T17:19:32.966Z,98671.44
2022-10-04T17:22:53.063Z,98669.16
2022-10-04T17:26:08.289Z,98669.78
2022-10-04T17:29:28.958Z,98671.78
2022-10-04T17:32:44.951Z,98660.28
2022-10-04T17:36:14.532Z,98659.59
2022-10-04T17:39:40.765Z,98654.53
2022-10-04T17:42:54.245Z,98655.16
2022-10-04T17:46:11.714Z,98640.41
2022-10-04T17:49:42.339Z,98642.13
2022-10-04T17:53:08.223Z,98629.25
2022-10-04T17:56:14.312Z,98634.16
2022-10-04T17:59:28.581Z,98640.97
2022-10-04T18:02:54.999Z,98639.94
2022-10-04T18:06:03.993Z,98651.25
2022-10-04T18:09:21.540Z,98645.88
2022-10-04T18:12:31.417Z,98643.16
2022-10-04T18:15:41.321Z,98644.28
2022-10-04T18:18:48.015Z,98645.09
2022-10-04T18:21:57.413Z,98647.84
2022-10-04T18:25:16.030Z,98652.47
2022-10-04T18:28:24.158Z,98654.13
2022-10-04T18:31:33.730Z,98656.06
2022-10-04T18:34:39.471Z,98662.81
2022-10-04T18:37:46.175Z,98655.84
2022-10-04T18:40:58.551Z,98662.91
2022-10-04T18:44:14.972Z,98665.59
2022-10-04T18:47:32.124Z,98669.69
2022-10-04T18:50:43.883Z,98678.59
2022-10-04T18:53:53.053Z,98681.28
2022-10-04T18:57:09.833Z,98685.03
2022-10-04T19:00:33.245Z,98681.56
2022-10-04T19:03:49.364Z,98686.19
2022-10-04T19:07:01.254Z,98701.00
2022-10-04T19:10:15.788Z,98687.81
2022-10-04T19:13:36.010Z,98691.06
2022-10-04T19:16:51.161Z,98692.19
2022-10-04T19:20:03.881Z,98698.38
2022-10-04T19:23:20.990Z,98696.53
2022-10-04T19:26:32.500Z,98699.22
2022-10-04T19:30:02.252Z,98697.63
2022-10-04T19:33:17.536Z,98693.34
2022-10-04T19:36:45.848Z,98703.28
2022-10-04T19:40:04.422Z,98714.84
2022-10-04T19:43:12.539Z,98711.34
2022-10-04T19:46:32.902Z,98715.91
2022-10-04T19:49:47.587Z,98717.56
2022-10-04T19:53:00.265Z,98716.47
2022-10-04T19:56:12.597Z,98720.22
2022-10-04T19:59:21.322Z,98722.38
2022-10-04T20:02:29.744Z,98723.47
2022-10-04T20:05:35.003Z,98728.31
2022-10-04T20:09:01.601Z,98731.53
2022-10-04T20:12:08.501Z,98740.13
2022-10-04T20:15:44.534Z,98741.22
2022-10-04T20:19:19.264Z,98745.53
2022-10-04T20:22:57.769Z,98752.25
2022-10-04T20:26:03.830Z,98754.41
2022-10-04T20:29:09.658Z,98754.13
2022-10-04T20:32:53.399Z,98760.06
2022-10-04T20:36:04.164Z,98758.44
2022-10-04T20:39:09.201Z,98769.72
2022-10-04T20:42:32.538Z,98773.47
2022-10-04T20:45:45.838Z,98778.06
2022-10-04T20:48:51.299Z,98778.03
2022-10-04T20:51:57.822Z,98784.78
2022-10-04T20:55:03.767Z,98782.34
2022-10-04T20:58:28.755Z,98786.38
2022-10-04T21:01:43.572Z,98795.00
2022-10-04T21:04:53.311Z,98800.59
2022-10-04T21:08:28.061Z,98807.31
2022-10-04T21:11:46.697Z,98817.78
2022-10-04T21:15:04.437Z,98814.28
2022-10-04T21:18:11.428Z,98806.75
2022-10-04T21:21:21.348Z,98808.38
2022-10-04T21:24:36.818Z,98803.75
2022-10-04T21:27:43.742Z,98807.53
2022-10-04T21:30:48.799Z,98814.22
2022-10-04T21:33:53.850Z,98805.06
2022-10-04T21:36:59.194Z,98816.88
2022-10-04T21:40:07.375Z,98806.66
2022-10-04T21:43:12.520Z,98807.44
2022-10-04T21:46:20.461Z,98806.88
2022-10-04T21:49:25.773Z,98806.84
2022-10-04T21:52:30.701Z,98814.34
2022-10-04T21:55:38.175Z,98819.72
2022-10-04T21:58:43.099Z,98812.97
2022-10-04T22:01:48.117Z,98820.19
2022-10-04T22:04:53.305Z,98811.88
2022-10-04T22:07:58.631Z,98824.22
2022-10-04T22:11:05.518Z,98823.16
2022-10-04T22:14:11.258Z,98815.53
2022-10-04T22:17:16.458Z,98810.72
2022-10-04T22:20:21.475Z,98808.56
2022-10-04T22:23:29.029Z,98816.28
2022-10-04T22:26:39.428Z,98801.78
2022-10-04T22:29:44.860Z,98800.94
2022-10-04T22:32:49.950Z,98788.34
2022-10-04T22:35:54.804Z,98774.59
2022-10-04T22:39:01.442Z,98773.00
2022-10-04T22:42:08.427Z,98771.09
2022-10-04T22:45:22.808Z,98776.69
2022-10-04T22:48:29.392Z,98770.25
2022-10-04T22:51:34.861Z,98764.34
2022-10-04T22:54:43.528Z,98766.47
2022-10-04T22:57:50.170Z,98757.88
2022-10-04T23:00:57.961Z,98765.63
2022-10-04T23:04:02.778Z,98759.69
2022-10-04T23:07:08.329Z,98768.03
2022-10-04T23:10:14.503Z,98769.63
2022-10-04T23:13:24.818Z,98761.31
2022-10-04T23:16:29.955Z,98765.63
2022-10-04T23:19:35.218Z,98753.53
2022-10-04T23:22:40.614Z,98750.81
2022-10-04T23:25:47.436Z,98760.75
2022-10-04T23:28:56.059Z,98750.28
2022-10-04T23:32:01.707Z,98749.25
2022-10-04T23:35:07.239Z,98748.44
2022-10-04T23:38:16.561Z,98741.25
2022-10-04T23:41:22.289Z,98732.16
2022-10-04T23:44:35.515Z,98729.22
2022-10-04T23:47:40.651Z,98727.06
2022-10-04T23:50:48.237Z,98723.81
2022-10-04T23:53:53.241Z,98724.59
2022-10-04T23:56:58.513Z,98733.19
